createdAt,value
2018-08-22T00:00:10.015Z,4.00
2018-08-22T00:01:10.020Z,4.00
2018-08-22T00:02:10.016Z,4.00
2018-08-22T00:03:10.018Z,4.00
2018-08-22T00:04:10.018Z,4.00
2018-08-22T00:05:10.019Z,4.00
2018-08-22T00:06:10.022Z,4.00
2018-08-22T00:07:10.022Z,4.00
2018-08-22T00:08:10.021Z,4.00
2018-08-22T00:09:10.023Z,4.00
2018-08-22T00:10:10.023Z,4.00
2018-08-22T00:11:10.024Z,4.00
2018-08-22T00:12:10.022Z,4.00
2018-08-22T00:13:10.027Z,4.00
2018-08-22T00:14:10.023Z,4.00
2018-08-22T00:15:10.080Z,4.00
2018-08-22T00:16:10.026Z,4.00
2018-08-22T00:17:10.027Z,4.00
2018-08-22T00:18:10.027Z,4.00
2018-08-22T00:19:10.027Z,4.00
2018-08-22T00:20:10.026Z,4.00
2018-08-22T00:21:10.033Z,4.00
2018-08-22T00:22:10.028Z,4.00
2018-08-22T00:23:10.028Z,4.00
2018-08-22T00:24:10.031Z,4.00
2018-08-22T00:25:10.029Z,4.00
2018-08-22T00:26:10.031Z,4.00
2018-08-22T00:27:10.031Z,4.00
2018-08-22T00:28:10.034Z,4.00
2018-08-22T00:29:10.097Z,4.00
2018-08-22T00:30:10.034Z,4.00
2018-08-22T00:31:10.034Z,4.00
2018-08-22T00:32:10.034Z,4.00
2018-08-22T00:33:10.034Z,4.00
2018-08-22T00:34:10.035Z,4.00
2018-08-22T00:35:10.034Z,4.00
2018-08-22T00:36:10.035Z,4.00
2018-08-22T00:37:10.038Z,4.00
2018-08-22T00:38:10.040Z,4.00
2018-08-22T00:39:10.037Z,4.00
2018-08-22T00:40:10.041Z,4.00
2018-08-22T00:41:10.037Z,4.00
2018-08-22T00:42:10.038Z,4.00
2018-08-22T00:43:10.042Z,4.00
2018-08-22T00:44:10.039Z,4.00
2018-08-22T00:45:10.041Z,4.00
2018-08-22T00:46:10.041Z,4.00
2018-08-22T00:47:10.039Z,4.00
2018-08-22T00:48:10.041Z,4.00
2018-08-22T00:49:10.043Z,4.00
2018-08-22T00:50:10.043Z,4.00
2018-08-22T00:51:10.044Z,4.00
2018-08-22T00:52:10.044Z,4.00
2018-08-22T00:53:10.043Z,4.00
2018-08-22T00:54:10.047Z,4.00
2018-08-22T00:55:10.050Z,4.00
2018-08-22T00:56:10.048Z,4.00
2018-08-22T00:57:10.046Z,4.00
2018-08-22T00:58:10.048Z,4.00
2018-08-22T00:59:10.046Z,4.00
2018-08-22T01:00:10.045Z,4.00
2018-08-22T01:01:10.047Z,4.00
2018-08-22T01:02:10.049Z,4.00
2018-08-22T01:03:10.049Z,4.00
2018-08-22T01:04:10.047Z,4.00
2018-08-22T01:05:10.049Z,4.00
2018-08-22T01:06:10.051Z,4.00
2018-08-22T01:07:10.048Z,4.00
2018-08-22T01:08:10.049Z,4.00
2018-08-22T01:09:10.049Z,4.00
2018-08-22T01:10:10.052Z,4.00
2018-08-22T01:11:10.053Z,4.00
2018-08-22T01:12:10.050Z,4.00
2018-08-22T01:13:10.052Z,4.00
2018-08-22T01:14:10.050Z,4.00
2018-08-22T01:15:10.051Z,4.00
2018-08-22T01:16:10.053Z,4.00
2018-08-22T01:17:10.052Z,4.00
2018-08-22T01:18:10.052Z,4.00
2018-08-22T01:19:10.051Z,4.00
2018-08-22T01:20:10.052Z,4.00
2018-08-22T01:21:10.055Z,4.00
2018-08-22T01:22:10.054Z,4.00
2018-08-22T01:23:10.053Z,4.00
2018-08-22T01:24:10.054Z,4.00
2018-08-22T01:25:10.055Z,4.00
2018-08-22T01:26:10.055Z,4.00
2018-08-22T01:27:10.054Z,4.00
2018-08-22T01:28:10.059Z,4.00
2018-08-22T01:29:10.053Z,4.00
2018-08-22T01:30:10.061Z,4.00
2018-08-22T01:31:10.061Z,4.00
2018-08-22T01:32:10.056Z,4.00
2018-08-22T01:33:10.055Z,4.00
2018-08-22T01:34:10.056Z,4.00
2018-08-22T01:35:10.054Z,4.00
2018-08-22T01:36:10.055Z,4.00
2018-08-22T01:37:10.057Z,4.00
2018-08-22T01:38:10.067Z,4.00
2018-08-22T01:39:10.057Z,4.00
2018-08-22T01:40:10.056Z,4.00
2018-08-22T01:41:10.058Z,4.00
2018-08-22T01:42:10.057Z,4.00
2018-08-22T01:43:10.056Z,4.00
2018-08-22T01:44:10.058Z,4.00
2018-08-22T01:45:10.057Z,4.00
2018-08-22T01:46:10.057Z,4.00
2018-08-22T01:47:10.059Z,4.00
2018-08-22T01:48:10.057Z,4.00
2018-08-22T01:49:10.057Z,4.00
2018-08-22T01:50:10.058Z,4.00
2018-08-22T01:51:10.056Z,4.00
2018-08-22T01:52:10.058Z,4.00
2018-08-22T01:53:10.059Z,4.00
2018-08-22T01:54:10.062Z,4.00
2018-08-22T01:55:10.058Z,4.00
2018-08-22T01:56:10.059Z,4.00
2018-08-22T01:57:10.060Z,4.00
2018-08-22T01:58:10.067Z,4.00
2018-08-22T01:59:10.057Z,4.00
2018-08-22T02:00:10.064Z,4.00
2018-08-22T02:01:10.059Z,4.00
2018-08-22T02:02:10.060Z,4.00
2018-08-22T02:03:10.088Z,4.00
2018-08-22T02:04:10.058Z,4.00
2018-08-22T02:05:10.060Z,4.00
2018-08-22T02:06:10.063Z,4.00
2018-08-22T02:07:10.059Z,4.00
2018-08-22T02:08:10.058Z,4.00
2018-08-22T02:09:10.060Z,4.00
2018-08-22T02:10:10.060Z,4.00
2018-08-22T02:11:10.059Z,4.00
2018-08-22T02:12:10.057Z,4.00
2018-08-22T02:13:10.059Z,4.00
2018-08-22T02:14:10.059Z,4.00
2018-08-22T02:15:10.059Z,4.00
2018-08-22T02:16:10.061Z,4.00
2018-08-22T02:17:10.060Z,4.00
2018-08-22T02:18:10.063Z,4.00
2018-08-22T02:19:10.065Z,4.00
2018-08-22T02:20:10.059Z,4.00
2018-08-22T02:21:10.059Z,4.00
2018-08-22T02:22:10.060Z,4.00
2018-08-22T02:23:10.058Z,4.00
2018-08-22T02:24:10.060Z,4.00
2018-08-22T02:25:10.097Z,4.00
2018-08-22T02:26:10.059Z,4.00
2018-08-22T02:27:10.063Z,4.00
2018-08-22T02:28:10.077Z,4.00
2018-08-22T02:29:10.059Z,4.00
2018-08-22T02:30:10.059Z,4.00
2018-08-22T02:31:10.059Z,4.00
2018-08-22T02:32:10.061Z,4.00
2018-08-22T02:33:10.060Z,4.00
2018-08-22T02:34:10.059Z,4.00
2018-08-22T02:35:10.073Z,4.00
2018-08-22T02:36:10.059Z,4.00
2018-08-22T02:37:10.065Z,4.00
2018-08-22T02:38:10.060Z,4.00
2018-08-22T02:39:10.058Z,4.00
2018-08-22T02:40:10.058Z,4.00
2018-08-22T02:41:10.058Z,4.00
2018-08-22T02:42:10.130Z,4.00
2018-08-22T02:43:10.063Z,4.00
2018-08-22T02:44:10.059Z,4.00
2018-08-22T02:45:10.058Z,4.00
2018-08-22T02:46:10.058Z,4.00
2018-08-22T02:47:10.057Z,4.00
2018-08-22T02:48:10.057Z,4.00
2018-08-22T02:49:10.056Z,4.00
2018-08-22T02:50:10.057Z,4.00
2018-08-22T02:51:10.057Z,4.00
2018-08-22T02:52:10.055Z,4.00
2018-08-22T02:53:10.055Z,4.00
2018-08-22T02:54:10.056Z,4.00
2018-08-22T02:55:10.056Z,4.00
2018-08-22T02:56:10.059Z,4.00
2018-08-22T02:57:10.058Z,4.00
2018-08-22T02:58:10.056Z,4.00
2018-08-22T02:59:10.054Z,4.00
2018-08-22T03:00:10.054Z,4.00
2018-08-22T03:01:10.054Z,4.00
2018-08-22T03:02:10.055Z,4.00
2018-08-22T03:03:10.053Z,4.00
2018-08-22T03:04:10.054Z,4.00
2018-08-22T03:05:10.054Z,4.00
2018-08-22T03:06:10.056Z,4.00
2018-08-22T03:07:10.058Z,4.00
2018-08-22T03:08:10.056Z,4.00
2018-08-22T03:09:10.052Z,4.00
2018-08-22T03:10:10.059Z,4.00
2018-08-22T03:11:10.054Z,4.00
2018-08-22T03:12:10.051Z,4.00
2018-08-22T03:13:10.052Z,4.00
2018-08-22T03:14:10.051Z,4.00
2018-08-22T03:15:10.052Z,4.00
2018-08-22T03:16:10.095Z,4.00
2018-08-22T03:17:10.054Z,4.00
2018-08-22T03:18:38.019Z,4.00
2018-08-22T03:19:10.050Z,4.00
2018-08-22T03:20:10.049Z,4.00
2018-08-22T03:21:10.051Z,4.00
2018-08-22T03:22:10.049Z,4.00
2018-08-22T03:23:10.049Z,4.00
2018-08-22T03:24:10.052Z,4.00
2018-08-22T03:25:10.048Z,4.00
2018-08-22T03:26:10.092Z,4.00
2018-08-22T03:27:10.048Z,8.00
2018-08-22T03:28:10.047Z,4.00
2018-08-22T03:29:10.048Z,8.00
2018-08-22T03:30:10.047Z,8.00
2018-08-22T03:31:10.055Z,8.00
2018-08-22T03:32:10.059Z,8.00
2018-08-22T03:33:10.047Z,8.00
2018-08-22T03:34:10.046Z,8.00
2018-08-22T03:35:10.045Z,8.00
2018-08-22T03:36:10.046Z,12.00
2018-08-22T03:37:10.043Z,12.00
2018-08-22T03:38:10.045Z,12.00
2018-08-22T03:39:10.043Z,12.00
2018-08-22T03:40:10.045Z,12.00
2018-08-22T03:41:10.043Z,8.00
2018-08-22T03:42:10.043Z,8.00
2018-08-22T03:43:10.043Z,12.00
2018-08-22T03:44:10.042Z,12.00
2018-08-22T03:45:10.041Z,12.00
2018-08-22T03:46:10.041Z,12.00
2018-08-22T03:47:10.046Z,12.00
2018-08-22T03:48:10.046Z,12.00
2018-08-22T03:49:10.041Z,8.00
2018-08-22T03:50:10.039Z,8.00
2018-08-22T03:51:10.045Z,8.00
2018-08-22T03:52:10.039Z,12.00
2018-08-22T03:53:10.038Z,12.00
2018-08-22T03:54:10.038Z,12.00
2018-08-22T03:55:10.038Z,16.00
2018-08-22T03:56:10.037Z,16.00
2018-08-22T03:57:10.040Z,20.00
2018-08-22T03:58:10.036Z,20.00
2018-08-22T03:59:10.036Z,24.00
2018-08-22T04:00:10.040Z,24.00
2018-08-22T04:01:10.038Z,28.00
2018-08-22T04:02:10.037Z,32.00
2018-08-22T04:03:10.042Z,32.00
2018-08-22T04:04:10.035Z,40.00
2018-08-22T04:05:10.033Z,40.00
2018-08-22T04:06:10.038Z,44.00
2018-08-22T04:07:10.034Z,48.00
2018-08-22T04:08:10.033Z,52.00
2018-08-22T04:09:10.036Z,56.00
2018-08-22T04:10:10.034Z,64.00
2018-08-22T04:11:10.031Z,68.00
2018-08-22T04:12:10.031Z,76.00
2018-08-22T04:13:10.031Z,84.00
2018-08-22T04:14:10.035Z,92.00
2018-08-22T04:15:10.030Z,100.00
2018-08-22T04:16:10.029Z,112.00
2018-08-22T04:17:10.031Z,116.00
2018-08-22T04:18:10.035Z,128.00
2018-08-22T04:19:10.028Z,140.00
2018-08-22T04:20:10.027Z,152.00
2018-08-22T04:21:10.033Z,172.00
2018-08-22T04:22:10.028Z,180.00
2018-08-22T04:23:10.029Z,192.00
2018-08-22T04:24:10.026Z,204.00
2018-08-22T04:25:10.027Z,220.00
2018-08-22T04:26:10.027Z,240.00
2018-08-22T04:27:10.024Z,256.00
2018-08-22T04:28:10.028Z,268.00
2018-08-22T04:29:10.024Z,284.00
2018-08-22T04:30:10.024Z,296.00
2018-08-22T04:31:10.023Z,316.00
2018-08-22T04:32:10.023Z,332.00
2018-08-22T04:33:10.022Z,344.00
2018-08-22T04:34:10.022Z,360.00
2018-08-22T04:35:10.021Z,376.00
2018-08-22T04:36:10.021Z,396.00
2018-08-22T04:37:10.021Z,416.00
2018-08-22T04:38:11.261Z,440.00
2018-08-22T04:39:10.020Z,456.00
2018-08-22T04:40:10.019Z,476.00
2018-08-22T04:41:10.020Z,500.00
2018-08-22T04:42:10.019Z,524.00
2018-08-22T04:43:10.017Z,548.00
2018-08-22T04:44:10.018Z,572.00
2018-08-22T04:45:10.017Z,596.00
2018-08-22T04:46:10.017Z,628.00
2018-08-22T04:47:10.018Z,664.00
2018-08-22T04:48:10.067Z,700.00
2018-08-22T04:49:10.017Z,796.00
2018-08-22T04:50:10.016Z,980.00
2018-08-22T04:51:10.014Z,1092.00
2018-08-22T04:52:10.015Z,1132.00
2018-08-22T04:53:10.013Z,1080.00
2018-08-22T04:54:10.014Z,952.00
2018-08-22T04:55:10.012Z,956.00
2018-08-22T04:56:10.012Z,988.00
2018-08-22T04:57:10.011Z,1148.00
2018-08-22T04:58:10.023Z,1540.00
2018-08-22T04:59:10.012Z,1824.00
2018-08-22T05:00:10.010Z,1644.00
2018-08-22T05:01:10.019Z,1428.00
2018-08-22T05:02:10.014Z,1360.00
2018-08-22T05:03:10.010Z,1348.00
2018-08-22T05:04:10.011Z,1344.00
2018-08-22T05:05:10.011Z,1380.00
2018-08-22T05:06:10.013Z,1416.00
2018-08-22T05:07:10.011Z,1464.00
2018-08-22T05:08:10.009Z,1536.00
2018-08-22T05:09:10.012Z,1612.00
2018-08-22T05:10:10.009Z,1684.00
2018-08-22T05:11:10.012Z,1756.00
2018-08-22T05:12:10.009Z,1812.00
2018-08-22T05:13:10.013Z,1868.00
2018-08-22T05:14:10.046Z,1920.00
2018-08-22T05:15:10.011Z,1976.00
2018-08-22T05:16:10.010Z,2012.00
2018-08-22T05:17:10.009Z,2056.00
2018-08-22T05:18:10.010Z,2112.00
2018-08-22T05:19:10.010Z,2164.00
2018-08-22T05:20:10.009Z,2216.00
2018-08-22T05:21:10.010Z,2260.00
2018-08-22T05:22:10.010Z,2320.00
2018-08-22T05:23:10.012Z,2376.00
2018-08-22T05:24:10.013Z,2440.00
2018-08-22T05:25:10.013Z,2508.00
2018-08-22T05:26:10.014Z,2552.00
2018-08-22T05:27:10.013Z,2648.00
2018-08-22T05:28:10.012Z,2716.00
2018-08-22T05:29:10.010Z,2764.00
2018-08-22T05:30:10.014Z,2788.00
2018-08-22T05:31:10.011Z,2856.00
2018-08-22T05:32:10.012Z,3372.00
2018-08-22T05:33:10.013Z,3828.00
2018-08-22T05:34:10.013Z,3080.00
2018-08-22T05:35:10.012Z,2968.00
2018-08-22T05:36:10.017Z,3236.00
2018-08-22T05:37:10.014Z,4460.00
2018-08-22T05:38:10.015Z,4648.00
2018-08-22T05:39:10.014Z,3940.00
2018-08-22T05:40:10.016Z,4924.00
2018-08-22T05:41:10.015Z,6028.00
2018-08-22T05:42:10.017Z,4876.00
2018-08-22T05:43:10.017Z,3296.00
2018-08-22T05:44:10.018Z,3264.00
2018-08-22T05:45:10.038Z,3312.00
2018-08-22T05:46:10.022Z,3372.00
2018-08-22T05:47:10.021Z,3352.00
2018-08-22T05:48:10.021Z,3380.00
2018-08-22T05:49:10.040Z,3344.00
2018-08-22T05:50:10.023Z,3368.00
2018-08-22T05:51:10.025Z,3364.00
2018-08-22T05:52:10.036Z,3400.00
2018-08-22T05:53:10.027Z,3428.00
2018-08-22T05:54:10.027Z,3428.00
2018-08-22T05:55:10.028Z,3428.00
2018-08-22T05:56:10.028Z,3404.00
2018-08-22T05:57:10.029Z,3408.00
2018-08-22T05:58:10.062Z,3440.00
2018-08-22T05:59:10.031Z,3452.00
2018-08-22T06:00:10.032Z,3476.00
2018-08-22T06:01:10.033Z,3476.00
2018-08-22T06:02:10.038Z,3468.00
2018-08-22T06:03:10.042Z,3416.00
2018-08-22T06:04:10.036Z,3388.00
2018-08-22T06:05:10.038Z,3384.00
2018-08-22T06:06:10.038Z,3352.00
2018-08-22T06:07:10.040Z,3340.00
2018-08-22T06:08:10.040Z,3336.00
2018-08-22T06:09:10.102Z,3328.00
2018-08-22T06:10:10.051Z,3288.00
2018-08-22T06:11:10.041Z,3236.00
2018-08-22T06:12:10.044Z,3192.00
2018-08-22T06:13:10.048Z,3152.00
2018-08-22T06:14:10.047Z,3144.00
2018-08-22T06:15:10.046Z,3120.00
2018-08-22T06:16:10.048Z,3068.00
2018-08-22T06:17:10.050Z,3044.00
2018-08-22T06:18:10.055Z,3008.00
2018-08-22T06:19:10.052Z,2956.00
2018-08-22T06:20:10.052Z,2880.00
2018-08-22T06:21:10.056Z,2760.00
2018-08-22T06:22:10.053Z,2632.00
2018-08-22T06:23:10.058Z,2516.00
2018-08-22T06:24:10.055Z,2392.00
2018-08-22T06:25:10.056Z,2252.00
2018-08-22T06:26:10.060Z,2140.00
2018-08-22T06:27:10.064Z,2064.00
2018-08-22T06:28:10.060Z,2024.00
2018-08-22T06:29:10.065Z,1988.00
2018-08-22T06:30:10.061Z,1964.00
2018-08-22T06:31:10.061Z,1952.00
2018-08-22T06:32:10.063Z,1944.00
2018-08-22T06:33:10.068Z,1936.00
2018-08-22T06:34:10.139Z,1928.00
2018-08-22T06:35:10.068Z,1928.00
2018-08-22T06:36:10.070Z,1920.00
2018-08-22T06:37:10.069Z,1916.00
2018-08-22T06:38:10.069Z,1912.00
2018-08-22T06:39:10.097Z,1916.00
2018-08-22T06:40:10.072Z,1912.00
2018-08-22T06:41:10.086Z,1916.00
2018-08-22T06:42:10.078Z,1912.00
2018-08-22T06:43:10.075Z,1908.00
2018-08-22T06:44:10.086Z,1908.00
2018-08-22T06:45:10.092Z,1908.00
2018-08-22T06:46:10.078Z,1904.00
2018-08-22T06:47:10.080Z,1908.00
2018-08-22T06:48:10.080Z,1912.00
2018-08-22T06:49:10.124Z,1924.00
2018-08-22T06:50:10.098Z,1924.00
2018-08-22T06:51:10.086Z,1928.00
2018-08-22T06:52:10.087Z,1920.00
2018-08-22T06:53:10.086Z,1920.00
2018-08-22T06:54:10.107Z,1920.00
2018-08-22T06:55:10.117Z,1920.00
2018-08-22T06:56:10.089Z,1924.00
2018-08-22T06:57:10.124Z,1928.00
2018-08-22T06:58:10.092Z,1932.00
2018-08-22T06:59:10.102Z,1932.00
2018-08-22T07:00:10.093Z,1932.00
2018-08-22T07:01:10.095Z,1936.00
2018-08-22T07:02:10.097Z,1936.00
2018-08-22T07:03:10.101Z,1936.00
2018-08-22T07:04:10.096Z,1944.00
2018-08-22T07:05:10.099Z,1948.00
2018-08-22T07:06:10.101Z,1952.00
2018-08-22T07:07:10.119Z,1960.00
2018-08-22T07:08:10.208Z,1964.00
2018-08-22T07:09:10.105Z,1980.00
2018-08-22T07:10:10.108Z,1992.00
2018-08-22T07:11:10.114Z,2004.00
2018-08-22T07:12:10.108Z,2012.00
2018-08-22T07:13:10.109Z,2020.00
2018-08-22T07:14:10.297Z,2024.00
2018-08-22T07:15:10.124Z,2036.00
2018-08-22T07:16:10.112Z,2044.00
2018-08-22T07:17:10.116Z,2056.00
2018-08-22T07:18:10.118Z,2064.00
2018-08-22T07:19:10.116Z,2072.00
2018-08-22T07:20:10.118Z,2080.00
2018-08-22T07:21:10.156Z,2088.00
2018-08-22T07:22:10.121Z,2100.00
2018-08-22T07:23:10.122Z,2104.00
2018-08-22T07:24:10.127Z,2120.00
2018-08-22T07:25:10.126Z,2140.00
2018-08-22T07:26:10.136Z,2152.00
2018-08-22T07:27:10.134Z,2148.00
2018-08-22T07:28:10.128Z,2152.00
2018-08-22T07:29:10.131Z,2164.00
2018-08-22T07:30:10.224Z,2212.00
2018-08-22T07:31:10.136Z,2312.00
2018-08-22T07:32:10.133Z,2360.00
2018-08-22T07:33:10.135Z,2336.00
2018-08-22T07:34:10.138Z,2292.00
2018-08-22T07:35:10.138Z,2260.00
2018-08-22T07:36:10.144Z,2260.00
2018-08-22T07:37:10.147Z,2280.00
2018-08-22T07:38:10.142Z,2340.00
2018-08-22T07:39:10.145Z,2416.00
2018-08-22T07:40:10.146Z,2484.00
2018-08-22T07:41:10.148Z,2520.00
2018-08-22T07:42:10.280Z,2532.00
2018-08-22T07:43:10.167Z,2496.00
2018-08-22T07:44:10.168Z,2424.00
2018-08-22T07:45:10.155Z,2344.00
2018-08-22T07:46:10.159Z,2324.00
2018-08-22T07:47:10.188Z,2360.00
2018-08-22T07:48:10.159Z,2348.00
2018-08-22T07:49:10.164Z,2284.00
2018-08-22T07:50:10.221Z,2276.00
2018-08-22T07:51:10.167Z,2280.00
2018-08-22T07:52:10.166Z,2296.00
2018-08-22T07:53:10.177Z,2344.00
2018-08-22T07:54:10.217Z,2412.00
2018-08-22T07:55:10.173Z,2428.00
2018-08-22T07:56:10.179Z,2376.00
2018-08-22T07:57:10.176Z,2332.00
2018-08-22T07:58:10.178Z,2340.00
2018-08-22T07:59:10.181Z,2356.00
2018-08-22T08:00:10.264Z,2392.00
2018-08-22T08:01:10.183Z,2428.00
2018-08-22T08:02:10.186Z,2536.00
2018-08-22T08:03:10.192Z,2628.00
2018-08-22T08:04:10.192Z,2684.00
2018-08-22T08:05:10.196Z,2696.00
2018-08-22T08:06:10.242Z,2680.00
2018-08-22T08:07:10.195Z,2684.00
2018-08-22T08:08:10.198Z,2700.00
2018-08-22T08:09:10.201Z,2708.00
2018-08-22T08:10:10.206Z,2636.00
2018-08-22T08:11:10.203Z,2616.00
2018-08-22T08:12:10.211Z,2608.00
2018-08-22T08:13:10.209Z,2648.00
2018-08-22T08:14:10.211Z,2748.00
2018-08-22T08:15:10.212Z,2892.00
2018-08-22T08:16:10.215Z,3036.00
2018-08-22T08:17:10.239Z,3112.00
2018-08-22T08:18:10.236Z,3172.00
2018-08-22T08:19:10.224Z,3104.00
2018-08-22T08:20:10.225Z,3128.00
2018-08-22T08:21:10.226Z,3100.00
2018-08-22T08:22:10.231Z,3036.00
2018-08-22T08:23:10.232Z,3000.00
2018-08-22T08:24:10.236Z,2924.00
2018-08-22T08:25:10.236Z,2932.00
2018-08-22T08:26:10.258Z,2864.00
2018-08-22T08:27:10.241Z,2844.00
2018-08-22T08:28:10.248Z,2840.00
2018-08-22T08:29:10.248Z,2844.00
2018-08-22T08:30:10.250Z,2844.00
2018-08-22T08:31:10.255Z,2844.00
2018-08-22T08:32:10.267Z,2852.00
2018-08-22T08:33:10.257Z,2844.00
2018-08-22T08:34:10.260Z,2844.00
2018-08-22T08:35:10.264Z,2852.00
2018-08-22T08:36:10.269Z,2848.00
2018-08-22T08:37:10.267Z,2836.00
2018-08-22T08:38:10.271Z,2816.00
2018-08-22T08:39:10.272Z,2800.00
2018-08-22T08:40:10.276Z,2780.00
2018-08-22T08:41:10.327Z,2776.00
2018-08-22T08:42:10.300Z,2776.00
2018-08-22T08:43:10.507Z,2788.00
2018-08-22T08:44:10.286Z,2800.00
2018-08-22T08:45:10.288Z,2808.00
2018-08-22T08:46:10.299Z,2824.00
2018-08-22T08:47:10.293Z,2836.00
2018-08-22T08:48:10.298Z,2856.00
2018-08-22T08:49:10.300Z,2876.00
2018-08-22T08:50:10.304Z,2992.00
2018-08-22T08:51:10.322Z,2924.00
2018-08-22T08:52:10.363Z,2944.00
2018-08-22T08:53:10.310Z,2976.00
2018-08-22T08:54:10.318Z,3008.00
2018-08-22T08:55:10.316Z,3020.00
2018-08-22T08:56:10.323Z,3040.00
2018-08-22T08:57:10.349Z,3064.00
2018-08-22T08:58:10.326Z,3108.00
2018-08-22T08:59:10.328Z,3156.00
2018-08-22T09:00:10.331Z,3212.00
2018-08-22T09:01:10.392Z,3236.00
2018-08-22T09:02:10.341Z,3256.00
2018-08-22T09:03:10.338Z,3320.00
2018-08-22T09:04:10.366Z,3408.00
2018-08-22T09:05:10.347Z,3500.00
2018-08-22T09:06:10.355Z,3572.00
2018-08-22T09:07:10.357Z,3588.00
2018-08-22T09:08:10.357Z,3632.00
2018-08-22T09:09:10.372Z,3704.00
2018-08-22T09:10:10.363Z,3928.00
2018-08-22T09:11:10.402Z,3880.00
2018-08-22T09:12:10.376Z,4116.00
2018-08-22T09:13:10.372Z,4160.00
2018-08-22T09:14:10.375Z,3940.00
2018-08-22T09:15:10.380Z,3948.00
2018-08-22T09:16:10.386Z,4180.00
2018-08-22T09:17:10.414Z,4244.00
2018-08-22T09:18:10.390Z,4400.00
2018-08-22T09:19:10.391Z,4492.00
2018-08-22T09:20:10.395Z,4492.00
2018-08-22T09:21:10.460Z,4280.00
2018-08-22T09:22:10.402Z,4316.00
2018-08-22T09:23:10.409Z,4092.00
2018-08-22T09:24:10.473Z,4152.00
2018-08-22T09:25:10.426Z,4200.00
2018-08-22T09:26:10.417Z,4080.00
2018-08-22T09:27:10.422Z,4196.00
2018-08-22T09:28:10.501Z,4244.00
2018-08-22T09:29:10.428Z,4400.00
2018-08-22T09:30:10.440Z,4436.00
2018-08-22T09:31:10.502Z,4184.00
2018-08-22T09:32:10.439Z,4452.00
2018-08-22T09:33:10.446Z,4612.00
2018-08-22T09:34:10.450Z,4732.00
2018-08-22T09:35:10.453Z,4652.00
2018-08-22T09:36:10.465Z,4668.00
2018-08-22T09:37:10.462Z,4740.00
2018-08-22T09:38:10.462Z,4580.00
2018-08-22T09:39:10.466Z,4840.00
2018-08-22T09:40:10.530Z,4564.00
2018-08-22T09:41:10.476Z,4492.00
2018-08-22T09:42:10.479Z,4616.00
2018-08-22T09:43:10.485Z,4848.00
2018-08-22T09:44:10.486Z,4848.00
2018-08-22T09:45:10.488Z,4812.00
2018-08-22T09:46:10.493Z,4808.00
2018-08-22T09:47:10.518Z,4804.00
2018-08-22T09:48:10.501Z,4712.00
2018-08-22T09:49:10.509Z,4776.00
2018-08-22T09:50:10.510Z,4764.00
2018-08-22T09:51:10.513Z,4632.00
2018-08-22T09:52:10.517Z,4516.00
2018-08-22T09:53:10.521Z,4372.00
2018-08-22T09:54:10.535Z,4280.00
2018-08-22T09:55:10.529Z,4224.00
2018-08-22T09:56:10.535Z,4220.00
2018-08-22T09:57:10.537Z,4224.00
2018-08-22T09:58:10.564Z,4264.00
2018-08-22T09:59:10.548Z,4380.00
2018-08-22T10:00:10.558Z,4468.00
2018-08-22T10:01:10.561Z,4412.00
2018-08-22T10:02:10.559Z,4316.00
2018-08-22T10:03:10.565Z,4292.00
2018-08-22T10:04:10.573Z,4284.00
2018-08-22T10:05:10.575Z,4248.00
2018-08-22T10:06:10.579Z,4204.00
2018-08-22T10:07:10.658Z,4164.00
2018-08-22T10:08:10.586Z,4148.00
2018-08-22T10:09:10.592Z,4148.00
2018-08-22T10:10:10.596Z,4172.00
2018-08-22T10:11:10.598Z,4184.00
2018-08-22T10:12:10.604Z,4124.00
2018-08-22T10:13:10.608Z,4056.00
2018-08-22T10:14:10.616Z,4052.00
2018-08-22T10:15:10.614Z,4044.00
2018-08-22T10:16:10.623Z,4028.00
2018-08-22T10:17:10.644Z,4008.00
2018-08-22T10:18:10.629Z,4008.00
2018-08-22T10:19:10.640Z,4012.00
2018-08-22T10:20:10.642Z,4036.00
2018-08-22T10:21:10.647Z,4056.00
2018-08-22T10:22:10.646Z,4060.00
2018-08-22T10:23:10.651Z,4060.00
2018-08-22T10:24:10.655Z,4040.00
2018-08-22T10:25:10.661Z,4032.00
2018-08-22T10:26:10.665Z,4028.00
2018-08-22T10:27:10.693Z,4016.00
2018-08-22T10:28:10.673Z,4004.00
2018-08-22T10:29:10.677Z,4000.00
2018-08-22T10:30:10.685Z,4008.00
2018-08-22T10:31:10.684Z,4028.00
2018-08-22T10:32:10.690Z,4056.00
2018-08-22T10:33:10.695Z,4068.00
2018-08-22T10:34:10.702Z,4096.00
2018-08-22T10:35:10.712Z,4120.00
2018-08-22T10:36:10.707Z,4144.00
2018-08-22T10:37:10.713Z,4152.00
2018-08-22T10:38:10.725Z,4148.00
2018-08-22T10:39:10.719Z,4156.00
2018-08-22T10:40:10.724Z,4136.00
2018-08-22T10:41:10.729Z,4144.00
2018-08-22T10:42:10.737Z,4120.00
2018-08-22T10:43:10.742Z,4080.00
2018-08-22T10:44:10.741Z,4056.00
2018-08-22T10:45:10.748Z,4016.00
2018-08-22T10:46:10.755Z,4024.00
2018-08-22T10:47:10.779Z,4016.00
2018-08-22T10:48:10.763Z,4008.00
2018-08-22T10:49:10.764Z,3992.00
2018-08-22T10:50:10.769Z,3964.00
2018-08-22T10:51:10.776Z,3952.00
2018-08-22T10:52:10.781Z,3936.00
2018-08-22T10:53:10.785Z,3932.00
2018-08-22T10:54:10.812Z,3956.00
2018-08-22T10:55:10.791Z,3964.00
2018-08-22T10:56:10.796Z,4000.00
2018-08-22T10:57:10.802Z,3976.00
2018-08-22T10:58:10.808Z,3976.00
2018-08-22T10:59:10.809Z,3960.00
2018-08-22T11:00:10.815Z,3944.00
2018-08-22T11:01:10.820Z,3912.00
2018-08-22T11:02:10.824Z,3896.00
2018-08-22T11:03:10.830Z,3868.00
2018-08-22T11:04:10.833Z,3844.00
2018-08-22T11:05:10.867Z,3832.00
2018-08-22T11:06:10.842Z,3824.00
2018-08-22T11:07:10.848Z,3820.00
2018-08-22T11:08:11.000Z,3808.00
2018-08-22T11:09:10.859Z,3792.00
2018-08-22T11:10:10.866Z,3780.00
2018-08-22T11:11:10.864Z,3776.00
2018-08-22T11:12:10.870Z,3772.00
2018-08-22T11:13:10.874Z,3764.00
2018-08-22T11:14:10.881Z,3752.00
2018-08-22T11:15:10.882Z,3716.00
2018-08-22T11:16:10.931Z,3696.00
2018-08-22T11:17:10.893Z,3692.00
2018-08-22T11:18:10.899Z,3680.00
2018-08-22T11:19:11.004Z,3656.00
2018-08-22T11:20:10.907Z,3636.00
2018-08-22T11:21:10.914Z,3616.00
2018-08-22T11:22:10.921Z,3608.00
2018-08-22T11:23:10.925Z,3596.00
2018-08-22T11:24:10.927Z,3580.00
2018-08-22T11:25:10.932Z,3552.00
2018-08-22T11:26:10.939Z,3544.00
2018-08-22T11:27:10.942Z,3532.00
2018-08-22T11:28:10.945Z,3524.00
2018-08-22T11:29:10.992Z,3516.00
2018-08-22T11:30:10.955Z,3492.00
2018-08-22T11:31:10.961Z,3488.00
2018-08-22T11:32:10.965Z,3488.00
2018-08-22T11:33:10.969Z,3488.00
2018-08-22T11:34:10.974Z,3492.00
2018-08-22T11:35:10.996Z,3484.00
2018-08-22T11:36:10.987Z,3488.00
2018-08-22T11:37:10.997Z,3492.00
2018-08-22T11:38:10.995Z,3484.00
2018-08-22T11:39:11.184Z,3472.00
2018-08-22T11:40:11.002Z,3460.00
2018-08-22T11:41:11.014Z,3452.00
2018-08-22T11:42:11.012Z,3460.00
2018-08-22T11:43:11.016Z,3452.00
2018-08-22T11:44:11.025Z,3436.00
2018-08-22T11:45:11.028Z,3444.00
2018-08-22T11:46:11.032Z,3452.00
2018-08-22T11:47:11.038Z,3472.00
2018-08-22T11:48:11.044Z,3488.00
2018-08-22T11:49:11.046Z,3500.00
2018-08-22T11:50:11.050Z,3480.00
2018-08-22T11:51:11.055Z,3524.00
2018-08-22T11:52:11.066Z,3576.00
2018-08-22T11:53:11.069Z,3628.00
2018-08-22T11:54:11.071Z,3624.00
2018-08-22T11:55:11.074Z,3656.00
2018-08-22T11:56:11.105Z,3708.00
2018-08-22T11:57:11.085Z,3780.00
2018-08-22T11:58:11.090Z,3932.00
2018-08-22T11:59:11.094Z,4076.00
2018-08-22T12:00:11.099Z,4040.00
2018-08-22T12:01:11.106Z,4012.00
2018-08-22T12:02:11.117Z,3956.00
2018-08-22T12:03:11.120Z,3984.00
2018-08-22T12:04:11.118Z,4000.00
2018-08-22T12:05:11.123Z,4196.00
2018-08-22T12:06:11.130Z,4368.00
2018-08-22T12:07:11.141Z,4264.00
2018-08-22T12:08:11.144Z,4200.00
2018-08-22T12:09:11.187Z,4148.00
2018-08-22T12:10:12.124Z,4116.00
2018-08-22T12:11:11.160Z,4076.00
2018-08-22T12:12:11.229Z,4040.00
2018-08-22T12:13:11.397Z,4016.00
2018-08-22T12:14:11.425Z,4008.00
2018-08-22T12:15:11.173Z,3996.00
2018-08-22T12:16:12.166Z,3924.00
2018-08-22T12:17:11.346Z,3856.00
2018-08-22T12:18:11.190Z,3820.00
2018-08-22T12:19:11.515Z,3796.00
2018-08-22T12:20:11.401Z,3796.00
2018-08-22T12:21:12.147Z,3800.00
2018-08-22T12:22:11.412Z,3808.00
2018-08-22T12:23:11.472Z,3856.00
2018-08-22T12:24:12.216Z,3912.00
2018-08-22T12:25:11.226Z,3936.00
2018-08-22T12:26:12.164Z,3928.00
2018-08-22T12:27:11.344Z,3880.00
2018-08-22T12:28:11.240Z,3812.00
2018-08-22T12:29:11.243Z,3728.00